Nashville, TN (37229)

9:18 AM CST on February 09, 2016 (GMT -0600)
Maplecrest Donelson , TN | | Change Station
CLOSE
Current Station
Personal Weather Station
Location: Nashville, TN
Elevation: 525 ft
Nearby Weather Stations
Active Advisory: Winter Weather Advisory Active Notice: Local Storm Report

Elev 525 ft 36.18 °N, 86.69 °W | Updated 5 seconds ago

Snow
Snow
24.8 °F
Feels Like 25 °F
N
1.1
Wind Variable Wind from NW
Gusts 6.0 mph

Today
High -- | Low -- °F
--% Chance of Precip.
Yesterday
High -- | Low -- °F
Precip. -- in
Pressure 29.91 in
Visibility 0.5 miles
Clouds Overcast 1300 ft
Windchill 25 °F
Dew Point 19 °F
Humidity 79%
Rainfall 0.00 in
Snow Depth Not available.
6:40 AM 5:21 PM
New Moon, 1% visible
SPECI KBNA 091513Z 34008KT 1/2SM R02L/4000V6000FT SN OVC013 M04/M07 A2991 RMK AO2 P0001
Pressure 29.91 in
Visibility 0.5 miles
Clouds Overcast 1300 ft
Windchill 25 °F
Dew Point 19 °F
Humidity 79%
Rainfall 0.00 in
Snow Depth Not available.
6:40 AM 5:21 PM
New Moon, 1% visible
SPECI KBNA 091513Z 34008KT 1/2SM R02L/4000V6000FT SN OVC013 M04/M07 A2991 RMK AO2 P0001

10-Day Weather Forecast

Almanac

Astronomy

Feb. 09, 2016 Rise Set
Actual Time
Civil Twilight
Nautical Twilight
Astronomical Twilight
Moon
Length of Visible Light
Length of Day
Tomorrow will be .
, % of the Moon is Illuminated

Today's Extremes

State Highs State Lows

Community

WunderPhotos

Upload Photos

1,891,619 photos uploaded!

WunderBlog® & News

Nearby

Air Quality

  Air Quality AQ Index Pollutant
Not available.

Snow Depth

Station Depth Elevation

Earthquake Activity

City Distance Mag. Time & Date
Minimum magnitude displayed is 2.5.

Coastal Water Temperatures

Place Temperature

Stations

Nearby Weather Stations

Station Location Temp. Windchill Dew Point Humidity Wind Precip. Elev Updated Type
                   

Watches & Warnings

Winter Weather Advisory
Issued: 1:34 AM CST Feb. 9, 2016 – National Weather Service

... Winter Weather Advisory now in effect until 6 PM CST this
evening...

* timing... until 6 PM CST this evening.

* Main impact... hazardous travel conditions across the area due
to snowfall as well as patchy ice on roadways.

* Total snow accumulations... 1 to 2 inches with locally higher
amounts around 3 inches possible.

Precautionary/preparedness actions...

A Winter Weather Advisory for snow means that periods of snow
will cause primarily travel difficulties. Be prepared for snow
covered roads and limited visibilities... and use caution while
driving.